Time;durP1;ratioP1;P1;durP2;ratioP2;P2;SDS_P1;SDS_P2;PMS_P1;PMS_P2;Temp;Humidity;BMP_temperature;BMP_pressure;BME280_temperature;BME280_humidity;BME280_pressure;Samples;Min_cycle;Max_cycle;Signal;HPM_P1;HPM_P2
2021/07/02 00:01:54;;;;;;;8.90;3.90;;;17.30;75.90;;;;;;10136649;28;20419;-54
2021/07/02 00:06:46;;;;;;;6.35;3.85;;;17.10;76.00;;;;;;10132200;28;20036;-55
2021/07/02 00:11:36;;;;;;;7.13;3.25;;;17.10;76.50;;;;;;10160701;28;20032;-54
2021/07/02 00:16:27;;;;;;;7.28;3.35;;;17.10;76.60;;;;;;10158740;28;20032;-57
2021/07/02 00:21:18;;;;;;;5.55;3.22;;;17.00;77.00;;;;;;10155386;28;20083;-58
2021/07/02 00:26:08;;;;;;;4.65;3.67;;;16.90;77.40;;;;;;10158728;28;20016;-53
2021/07/02 00:30:59;;;;;;;6.43;3.35;;;16.80;77.60;;;;;;10148995;28;20295;-57
2021/07/02 00:35:50;;;;;;;6.07;3.88;;;16.80;77.80;;;;;;10162367;28;20044;-56
2021/07/02 00:40:40;;;;;;;6.93;3.92;;;16.80;78.00;;;;;;10158474;28;20540;-53
2021/07/02 00:45:32;;;;;;;5.03;3.22;;;16.70;78.20;;;;;;10155922;28;20281;-57
2021/07/02 00:50:23;;;;;;;6.90;3.28;;;16.60;78.40;;;;;;10154909;28;20119;-54
2021/07/02 00:55:14;;;;;;;6.15;3.40;;;16.50;79.40;;;;;;10157697;28;20585;-51
2021/07/02 01:00:09;;;;;;;7.72;4.82;;;16.50;78.90;;;;;;10159157;28;20052;-53
2021/07/02 01:04:59;;;;;;;7.93;4.03;;;16.50;78.90;;;;;;10154053;28;20024;-53
2021/07/02 01:09:51;;;;;;;5.72;3.03;;;16.50;79.00;;;;;;10152838;28;20474;-55
2021/07/02 01:14:42;;;;;;;5.00;2.95;;;16.40;79.30;;;;;;10155306;28;20039;-56
2021/07/02 01:19:33;;;;;;;3.40;2.50;;;16.40;79.40;;;;;;10161364;28;20394;-57
2021/07/02 01:24:24;;;;;;;7.35;2.90;;;16.40;79.70;;;;;;10155704;28;20039;-56
2021/07/02 01:29:15;;;;;;;7.55;3.40;;;16.30;79.70;;;;;;10155469;28;20520;-54
2021/07/02 01:34:06;;;;;;;5.35;2.58;;;16.30;79.90;;;;;;10147220;28;20068;-56
2021/07/02 01:38:56;;;;;;;5.95;3.15;;;16.20;80.00;;;;;;10152347;28;20048;-53
2021/07/02 01:43:47;;;;;;;6.50;3.05;;;16.20;80.10;;;;;;10140165;28;20510;-56
2021/07/02 01:48:38;;;;;;;7.22;3.45;;;16.20;80.30;;;;;;10148887;28;20021;-57
2021/07/02 01:53:29;;;;;;;4.97;3.70;;;16.10;80.70;;;;;;10147643;28;20422;-58
2021/07/02 01:58:19;;;;;;;4.07;2.88;;;16.00;81.10;;;;;;10157179;28;20040;-58
2021/07/02 02:03:10;;;;;;;5.60;2.95;;;16.00;81.00;;;;;;10168987;28;20024;-55
2021/07/02 02:08:01;;;;;;;4.65;3.22;;;15.80;81.30;;;;;;10157111;28;20502;-57
2021/07/02 02:12:51;;;;;;;6.03;3.00;;;15.80;81.50;;;;;;10146618;28;20032;-55
2021/07/02 02:17:42;;;;;;;6.00;3.50;;;15.80;81.50;;;;;;10162064;28;20040;-56
2021/07/02 02:22:34;;;;;;;5.00;3.05;;;15.70;81.50;;;;;;10177665;28;20024;-54
2021/07/02 02:27:24;;;;;;;4.85;3.08;;;15.70;81.60;;;;;;10142672;28;20030;-60
2021/07/02 02:32:15;;;;;;;4.03;3.08;;;15.70;81.50;;;;;;10154145;28;20020;-56
2021/07/02 02:37:06;;;;;;;5.65;3.38;;;15.70;81.70;;;;;;10151239;28;20029;-53
2021/07/02 02:41:56;;;;;;;5.07;3.33;;;15.80;81.70;;;;;;10137777;28;20044;-55
2021/07/02 02:46:47;;;;;;;6.05;2.78;;;15.70;81.60;;;;;;10175815;28;20055;-57
2021/07/02 02:51:38;;;;;;;6.20;3.20;;;15.70;81.80;;;;;;10150094;28;20107;-58
2021/07/02 02:56:28;;;;;;;4.88;2.63;;;15.60;82.00;;;;;;10159838;28;20059;-56
2021/07/02 03:01:19;;;;;;;4.78;2.95;;;15.50;82.10;;;;;;10152925;28;20544;-54
2021/07/02 03:06:10;;;;;;;5.10;3.05;;;15.50;82.20;;;;;;10165060;28;20032;-57
2021/07/02 03:11:00;;;;;;;6.47;3.13;;;15.40;82.10;;;;;;10159992;28;20410;-57
2021/07/02 03:15:51;;;;;;;6.10;3.15;;;15.50;82.00;;;;;;10158697;28;20498;-58
2021/07/02 03:20:42;;;;;;;5.05;2.80;;;15.40;82.30;;;;;;10153457;28;20032;-53
2021/07/02 03:25:32;;;;;;;4.70;3.13;;;15.40;82.40;;;;;;10150835;28;20032;-56
2021/07/02 03:30:23;;;;;;;5.70;3.10;;;15.40;82.40;;;;;;10164339;28;20028;-58
2021/07/02 03:35:14;;;;;;;5.47;2.97;;;15.40;82.40;;;;;;10159148;28;20037;-59
2021/07/02 03:40:09;;;;;;;6.57;2.75;;;15.40;82.50;;;;;;10159030;28;20237;-52
2021/07/02 03:45:00;;;;;;;5.93;3.45;;;15.40;82.60;;;;;;10162742;28;20028;-59
2021/07/02 03:49:51;;;;;;;4.95;2.88;;;15.50;82.50;;;;;;10156444;28;20089;-58
2021/07/02 03:54:41;;;;;;;5.07;3.10;;;15.50;82.70;;;;;;10162137;28;20020;-54
2021/07/02 03:59:32;;;;;;;4.47;3.05;;;15.50;82.70;;;;;;10152801;28;20075;-55
2021/07/02 04:04:23;;;;;;;4.32;2.83;;;15.60;82.80;;;;;;10160639;28;20379;-56
2021/07/02 04:09:14;;;;;;;4.30;2.88;;;15.70;82.60;;;;;;10148510;28;20567;-56
2021/07/02 04:14:05;;;;;;;7.50;2.88;;;15.70;82.60;;;;;;10163697;28;20047;-57
2021/07/02 04:18:56;;;;;;;6.82;3.75;;;15.80;83.00;;;;;;10156717;28;20529;-59
2021/07/02 04:23:47;;;;;;;4.95;3.28;;;15.90;82.70;;;;;;10152619;28;20121;-55
2021/07/02 04:28:37;;;;;;;5.07;3.08;;;16.00;82.50;;;;;;10154148;28;20035;-56
2021/07/02 04:33:28;;;;;;;5.95;3.25;;;16.10;82.70;;;;;;10163469;28;20394;-57
2021/07/02 04:38:19;;;;;;;6.13;2.92;;;16.10;82.70;;;;;;10160857;28;20043;-57
2021/07/02 04:43:09;;;;;;;4.82;3.17;;;16.20;82.40;;;;;;10156563;28;20115;-55
2021/07/02 04:48:00;;;;;;;5.45;3.00;;;16.30;82.30;;;;;;10156334;28;20044;-55
2021/07/02 04:52:51;;;;;;;5.10;2.75;;;16.30;82.30;;;;;;10158552;28;20032;-58
2021/07/02 04:57:41;;;;;;;4.18;2.65;;;16.30;82.20;;;;;;10159187;28;20051;-55
2021/07/02 05:02:32;;;;;;;4.93;2.95;;;16.50;81.90;;;;;;10150012;28;20036;-55
2021/07/02 05:07:23;;;;;;;6.15;3.25;;;16.50;81.80;;;;;;10151809;28;20058;-58
2021/07/02 05:12:14;;;;;;;4.97;3.20;;;16.50;81.70;;;;;;10131323;28;20055;-53
2021/07/02 05:17:05;;;;;;;6.85;3.30;;;16.60;81.50;;;;;;10161784;28;20469;-54
2021/07/02 05:21:56;;;;;;;4.85;2.58;;;16.60;81.20;;;;;;10155966;28;20938;-56
2021/07/02 05:26:46;;;;;;;5.93;3.35;;;16.50;81.50;;;;;;10151772;28;20529;-53
2021/07/02 05:31:37;;;;;;;3.22;2.83;;;16.60;81.30;;;;;;10146996;28;20499;-53
2021/07/02 05:36:28;;;;;;;7.38;3.05;;;16.60;81.20;;;;;;10160032;28;20028;-59
2021/07/02 05:41:18;;;;;;;5.32;3.42;;;16.60;81.10;;;;;;10159765;28;20101;-56
2021/07/02 05:46:09;;;;;;;5.55;3.03;;;16.80;80.50;;;;;;10155477;28;20148;-57
2021/07/02 05:51:00;;;;;;;7.78;3.63;;;16.80;80.30;;;;;;10150710;28;20024;-51
2021/07/02 05:55:51;;;;;;;6.30;2.13;;;16.80;80.20;;;;;;10139563;28;20120;-58
2021/07/02 06:00:42;;;;;;;4.40;3.03;;;16.80;79.70;;;;;;10153222;28;20415;-55
2021/07/02 06:05:34;;;;;;;5.22;2.75;;;17.00;79.30;;;;;;10155422;28;20098;-55
2021/07/02 06:10:25;;;;;;;5.70;2.97;;;16.90;79.40;;;;;;10151502;28;20036;-57
2021/07/02 06:15:19;;;;;;;5.15;2.97;;;17.00;79.20;;;;;;10146109;28;20046;-56
2021/07/02 06:20:11;;;;;;;4.25;2.67;;;16.90;79.20;;;;;;10125034;28;20586;-58
2021/07/02 06:25:03;;;;;;;5.95;3.55;;;16.90;79.00;;;;;;10165451;28;20332;-54
2021/07/02 06:29:54;;;;;;;5.75;3.10;;;16.90;78.90;;;;;;10162841;28;20719;-55
2021/07/02 06:34:45;;;;;;;5.43;2.78;;;17.10;78.40;;;;;;10163772;28;20422;-57
2021/07/02 06:39:35;;;;;;;7.70;3.42;;;17.10;78.20;;;;;;10166750;28;20035;-55
2021/07/02 06:44:26;;;;;;;5.47;3.53;;;17.20;77.90;;;;;;10167199;28;20029;-57
2021/07/02 06:49:17;;;;;;;5.55;3.55;;;17.20;77.90;;;;;;10164554;28;20024;-56
2021/07/02 06:54:08;;;;;;;5.68;3.42;;;17.40;77.60;;;;;;10160779;28;20028;-57
2021/07/02 06:58:58;;;;;;;6.22;3.95;;;17.50;77.30;;;;;;10162187;28;20044;-54
2021/07/02 07:03:50;;;;;;;6.53;3.30;;;17.50;77.20;;;;;;10148914;28;20101;-57
2021/07/02 07:08:41;;;;;;;5.80;3.25;;;17.60;77.10;;;;;;10150252;28;20127;-56
2021/07/02 07:13:31;;;;;;;6.10;3.50;;;17.70;76.60;;;;;;10164776;28;20457;-54
2021/07/02 07:18:22;;;;;;;5.13;4.00;;;17.80;76.40;;;;;;10164501;28;20184;-54
2021/07/02 07:23:13;;;;;;;4.80;3.10;;;17.90;76.00;;;;;;10146482;28;20051;-55
2021/07/02 07:28:03;;;;;;;5.88;3.75;;;18.00;75.50;;;;;;10162803;28;20024;-53
2021/07/02 07:32:55;;;;;;;8.02;3.30;;;18.20;75.10;;;;;;10160835;28;20021;-57
2021/07/02 07:37:48;;;;;;;6.00;3.45;;;18.20;75.00;;;;;;10162002;28;20854;-55
2021/07/02 07:42:39;;;;;;;6.53;3.75;;;18.30;74.70;;;;;;10162273;28;20036;-56
2021/07/02 07:47:30;;;;;;;7.00;3.38;;;18.50;74.10;;;;;;10163716;28;20032;-56
2021/07/02 07:52:42;;;;;;;6.05;4.07;;;18.50;74.10;;;;;;10161960;28;20032;-59
2021/07/02 07:57:32;;;;;;;8.48;3.55;;;18.60;73.60;;;;;;10159719;28;20383;-55
2021/07/02 08:02:23;;;;;;;5.22;4.10;;;18.60;74.20;;;;;;10158297;28;20076;-57
2021/07/02 08:07:14;;;;;;;4.82;3.70;;;18.80;73.30;;;;;;10160233;28;20112;-58
2021/07/02 08:12:05;;;;;;;8.38;5.05;;;19.00;72.70;;;;;;10146375;28;20435;-59
2021/07/02 08:16:55;;;;;;;7.32;5.05;;;19.20;72.20;;;;;;10163240;28;20032;-58
2021/07/02 08:21:46;;;;;;;6.72;3.85;;;19.30;71.90;;;;;;10161661;28;20097;-57
2021/07/02 08:26:37;;;;;;;9.23;4.18;;;19.40;71.80;;;;;;10160579;28;20024;-57
2021/07/02 08:31:28;;;;;;;6.28;3.42;;;19.40;71.70;;;;;;10146664;28;20600;-60
2021/07/02 08:36:18;;;;;;;16.33;8.95;;;19.50;71.40;;;;;;10159613;28;20032;-57
2021/07/02 08:41:13;;;;;;;6.50;4.03;;;19.70;70.80;;;;;;10157775;28;20532;-54
2021/07/02 08:46:04;;;;;;;5.07;3.38;;;19.70;70.40;;;;;;10153287;28;20574;-54
2021/07/02 08:50:55;;;;;;;5.00;3.60;;;19.90;69.60;;;;;;10142444;28;20035;-55
2021/07/02 08:55:46;;;;;;;7.25;5.18;;;20.00;69.00;;;;;;10161297;28;20058;-54
2021/07/02 09:00:36;;;;;;;6.50;4.40;;;20.20;68.40;;;;;;10157258;28;20309;-59
2021/07/02 09:05:38;;;;;;;4.78;3.63;;;20.60;67.50;;;;;;10158903;28;20341;-58
2021/07/02 09:10:35;;;;;;;6.63;4.13;;;20.80;66.30;;;;;;10161140;28;20075;-59
2021/07/02 09:15:26;;;;;;;6.20;3.63;;;20.90;65.90;;;;;;10157854;28;20028;-55
2021/07/02 09:20:19;;;;;;;6.10;3.70;;;20.90;65.90;;;;;;10158391;28;20083;-57
2021/07/02 09:25:31;;;;;;;4.85;3.53;;;21.00;65.30;;;;;;10158539;28;20029;-59
2021/07/02 09:30:25;;;;;;;6.15;3.53;;;21.00;64.20;;;;;;10141996;28;20034;-56
2021/07/02 09:35:17;;;;;;;6.68;3.58;;;21.10;64.40;;;;;;10153008;28;20312;-56
2021/07/02 09:40:09;;;;;;;4.72;3.20;;;21.50;63.60;;;;;;10158214;28;20048;-56
2021/07/02 09:45:15;;;;;;;6.07;4.03;;;21.40;63.40;;;;;;10157205;28;20032;-59
2021/07/02 09:50:25;;;;;;;5.38;3.50;;;21.30;62.60;;;;;;10153091;28;20016;-54
2021/07/02 09:55:18;;;;;;;4.53;2.88;;;21.50;60.20;;;;;;10160031;28;20248;-57
2021/07/02 10:00:14;;;;;;;7.78;4.15;;;21.40;61.90;;;;;;10165568;28;20395;-57
2021/07/02 10:05:06;;;;;;;5.15;3.45;;;21.60;61.20;;;;;;10162388;28;20114;-55
2021/07/02 10:09:56;;;;;;;4.93;3.70;;;22.10;60.20;;;;;;10158349;28;20059;-56
2021/07/02 10:14:49;;;;;;;4.60;3.10;;;22.20;59.40;;;;;;10161013;28;20020;-56
2021/07/02 10:19:41;;;;;;;6.15;3.95;;;22.50;58.70;;;;;;10166922;28;20056;-53
2021/07/02 10:24:32;;;;;;;5.00;3.50;;;22.90;57.50;;;;;;10156643;28;20443;-56
2021/07/02 10:29:23;;;;;;;5.45;3.60;;;23.40;56.70;;;;;;10155801;28;20059;-55
2021/07/02 10:34:14;;;;;;;5.38;3.03;;;23.40;56.70;;;;;;10153998;28;20096;-54
2021/07/02 10:39:25;;;;;;;7.20;3.88;;;23.30;56.50;;;;;;10163925;28;20070;-55
2021/07/02 10:44:18;;;;;;;6.43;3.38;;;23.10;56.20;;;;;;10165291;28;20040;-57
2021/07/02 10:49:09;;;;;;;4.82;3.50;;;23.20;55.70;;;;;;10160525;28;20480;-54
2021/07/02 10:54:15;;;;;;;6.70;4.30;;;23.00;55.50;;;;;;10155962;28;20028;-53
2021/07/02 10:59:07;;;;;;;5.45;4.20;;;23.20;54.30;;;;;;10155691;28;20036;-55
2021/07/02 11:04:33;;;;;;;3.92;3.10;;;23.60;54.10;;;;;;10166447;28;20418;-56
2021/07/02 11:14:54;;;;;;;4.53;3.78;;;23.70;52.90;;;;;;10162695;28;20030;-55
2021/07/02 11:19:46;;;;;;;4.85;3.42;;;23.80;53.20;;;;;;10160027;28;20036;-58
2021/07/02 11:25:18;;;;;;;5.97;3.85;;;23.80;53.20;;;;;;10174225;28;20039;-57
2021/07/02 11:30:35;;;;;;;6.05;3.30;;;23.90;52.40;;;;;;10148411;28;20035;-55
2021/07/02 11:35:31;;;;;;;5.32;3.05;;;23.90;52.50;;;;;;10161746;28;20328;-55
2021/07/02 11:40:22;;;;;;;5.93;3.63;;;24.10;52.50;;;;;;10143493;28;20494;-59
2021/07/02 11:45:12;;;;;;;6.53;3.70;;;24.00;52.60;;;;;;10154562;28;20035;-57
2021/07/02 11:50:03;;;;;;;4.93;3.80;;;24.00;52.80;;;;;;10166956;28;20388;-57
2021/07/02 11:54:54;;;;;;;3.80;3.45;;;24.20;52.20;;;;;;10173024;28;20038;-59
2021/07/02 12:00:00;;;;;;;5.45;3.40;;;24.20;52.00;;;;;;10140310;28;20052;-55
2021/07/02 12:05:11;;;;;;;6.35;3.50;;;23.80;52.00;;;;;;10161965;28;20521;-55
2021/07/02 12:10:02;;;;;;;8.52;3.67;;;24.00;52.10;;;;;;10166012;28;20460;-58
2021/07/02 12:14:53;;;;;;;4.53;3.13;;;24.00;52.20;;;;;;10166229;28;20336;-52
2021/07/02 12:19:43;;;;;;;4.85;3.40;;;24.20;52.30;;;;;;10159833;28;20032;-53
2021/07/02 12:24:37;;;;;;;7.93;3.67;;;24.50;52.20;;;;;;10147485;28;20417;-54
2021/07/02 12:29:30;;;;;;;4.43;3.43;;;24.20;52.50;;;;;;10163384;28;20565;-51
2021/07/02 12:34:23;;;;;;;7.75;3.97;;;24.20;52.70;;;;;;10159731;28;20071;-56
2021/07/02 12:39:14;;;;;;;5.00;3.50;;;24.70;52.70;;;;;;10158379;28;20072;-57
2021/07/02 12:44:07;;;;;;;5.38;3.67;;;25.20;52.50;;;;;;10153240;28;20330;-58
2021/07/02 12:49:22;;;;;;;6.30;3.72;;;25.70;52.40;;;;;;10155368;28;20518;-57
2021/07/02 12:59:23;;;;;;;4.10;3.35;;;25.80;52.30;;;;;;10161184;28;20075;-56
2021/07/02 13:04:13;;;;;;;4.80;3.22;;;25.00;52.70;;;;;;10140885;28;20089;-60
2021/07/02 13:09:04;;;;;;;8.02;4.05;;;24.70;52.60;;;;;;10150867;28;20542;-58
2021/07/02 13:13:54;;;;;;;4.75;3.60;;;25.50;51.90;;;;;;10149242;28;20039;-59
2021/07/02 13:18:55;;;;;;;6.10;4.30;;;25.50;51.00;;;;;;10159747;28;20040;-58
2021/07/02 13:23:59;;;;;;;5.45;4.03;;;25.10;50.70;;;;;;10154982;28;20035;-55
2021/07/02 13:29:00;;;;;;;;;;;24.70;51.80;;;;;;10154147;28;20040;-54
2021/07/02 13:34:12;;;;;;;4.82;3.63;;;24.80;51.40;;;;;;10148806;28;19949;-56
2021/07/02 13:39:06;;;;;;;4.43;3.47;;;24.70;51.40;;;;;;10161006;28;20323;-58
2021/07/02 13:43:58;;;;;;;7.30;3.40;;;25.20;51.70;;;;;;10156804;28;20708;-58
2021/07/02 13:48:49;;;;;;;7.93;3.92;;;28.00;49.00;;;;;;10153444;28;20098;-57
2021/07/02 13:53:39;;;;;;;5.95;3.67;;;30.80;45.60;;;;;;10154301;28;20462;-56
2021/07/02 13:58:30;;;;;;;6.50;4.53;;;29.60;46.50;;;;;;10161505;28;20097;-56
2021/07/02 14:03:23;;;;;;;5.82;4.32;;;28.20;47.90;;;;;;10164738;28;20097;-54
2021/07/02 14:08:13;;;;;;;5.37;3.97;;;28.20;48.60;;;;;;10168849;28;20048;-58
2021/07/02 14:13:04;;;;;;;8.55;4.35;;;28.10;47.40;;;;;;10153120;28;20710;-56
2021/07/02 14:17:55;;;;;;;7.72;4.10;;;28.30;46.80;;;;;;10149769;28;20059;-59
2021/07/02 14:22:46;;;;;;;8.43;5.88;;;27.40;47.90;;;;;;10169805;28;20108;-59
2021/07/02 14:27:37;;;;;;;4.65;3.97;;;26.90;48.20;;;;;;10159363;28;20115;-59
2021/07/02 14:32:28;;;;;;;7.50;4.20;;;26.50;48.20;;;;;;10154543;28;20443;-60
2021/07/02 14:37:19;;;;;;;4.30;3.60;;;27.50;46.90;;;;;;10148854;28;20088;-59
2021/07/02 14:42:09;;;;;;;7.97;4.88;;;28.10;46.10;;;;;;10177938;28;20078;-59
2021/07/02 14:47:00;;;;;;;7.13;4.38;;;27.90;46.10;;;;;;10166655;28;20046;-59
2021/07/02 14:51:50;;;;;;;10.15;7.03;;;27.40;46.80;;;;;;10162120;28;20895;-60
2021/07/02 14:56:41;;;;;;;6.47;4.50;;;26.80;47.50;;;;;;10157538;28;20071;-59
2021/07/02 15:01:32;;;;;;;6.22;4.38;;;26.70;47.30;;;;;;10151000;28;20048;-59
2021/07/02 15:06:22;;;;;;;5.90;4.93;;;28.60;44.90;;;;;;10157091;28;20028;-59
2021/07/02 15:11:14;;;;;;;7.63;5.53;;;31.20;42.10;;;;;;10151563;28;20115;-60
2021/07/02 15:16:04;;;;;;;5.50;4.37;;;32.60;40.70;;;;;;10162398;28;20497;-58
2021/07/02 15:20:55;;;;;;;5.65;4.18;;;33.40;40.20;;;;;;10139783;28;20047;-61
2021/07/02 15:25:46;;;;;;;5.67;4.10;;;33.30;39.70;;;;;;10164960;28;20039;-59
2021/07/02 15:31:14;;;;;;;4.93;4.17;;;34.10;39.00;;;;;;10161932;28;20222;-60
2021/07/02 15:36:06;;;;;;;4.40;3.60;;;33.90;37.50;;;;;;10153651;28;20032;-58
2021/07/02 15:40:57;;;;;;;6.32;4.18;;;34.30;37.90;;;;;;10157256;28;20040;-58
2021/07/02 15:45:47;;;;;;;6.83;4.30;;;34.30;37.00;;;;;;10148517;28;20663;-60
2021/07/02 15:50:38;;;;;;;6.53;4.10;;;34.10;37.10;;;;;;10164339;28;20510;-58
2021/07/02 15:55:30;;;;;;;5.07;4.27;;;33.90;36.90;;;;;;10159305;28;20494;-59
2021/07/02 16:00:20;;;;;;;3.92;3.05;;;33.50;36.50;;;;;;10157104;28;20052;-59
2021/07/02 16:05:11;;;;;;;3.67;3.00;;;34.20;35.60;;;;;;10151376;28;20109;-59
2021/07/02 16:10:03;;;;;;;5.05;3.85;;;33.70;35.60;;;;;;10140315;28;20040;-58
2021/07/02 16:14:54;;;;;;;3.97;3.53;;;33.10;36.20;;;;;;10157949;28;20266;-59
2021/07/02 16:19:45;;;;;;;6.03;4.32;;;32.40;36.40;;;;;;10158415;28;20255;-59
2021/07/02 16:24:37;;;;;;;3.90;3.47;;;32.50;36.80;;;;;;10152507;28;20032;-59
2021/07/02 16:29:27;;;;;;;;;;;33.90;34.80;;;;;;10157305;28;20375;-59
2021/07/02 16:34:18;;;;;;;4.43;3.38;;;32.80;36.30;;;;;;10163313;28;19908;-59
2021/07/02 16:39:09;;;;;;;5.72;3.83;;;32.30;36.20;;;;;;10160309;28;20101;-58
2021/07/02 16:44:00;;;;;;;4.53;3.17;;;31.90;36.40;;;;;;10154732;28;20425;-57
2021/07/02 16:48:50;;;;;;;6.03;4.30;;;33.80;34.00;;;;;;10152176;28;20036;-58
2021/07/02 16:53:41;;;;;;;5.47;3.78;;;33.10;35.60;;;;;;10162431;28;20027;-58
2021/07/02 16:58:32;;;;;;;5.47;4.05;;;35.70;32.80;;;;;;10159332;28;20070;-59
2021/07/02 17:03:24;;;;;;;5.07;3.63;;;37.00;31.80;;;;;;10155629;28;20035;-59
2021/07/02 17:08:14;;;;;;;6.60;4.95;;;37.00;31.70;;;;;;10153753;28;20495;-58
2021/07/02 17:13:05;;;;;;;4.03;3.60;;;37.80;30.90;;;;;;10161143;28;20056;-59
2021/07/02 17:17:56;;;;;;;6.93;3.40;;;37.00;31.10;;;;;;10156593;28;20116;-58
2021/07/02 17:22:46;;;;;;;4.57;3.40;;;35.10;32.60;;;;;;10154342;28;20066;-58
2021/07/02 17:27:38;;;;;;;4.40;3.45;;;35.50;31.70;;;;;;10153381;28;20016;-59
2021/07/02 17:32:29;;;;;;;4.80;3.63;;;34.90;32.10;;;;;;10137256;28;20509;-58
2021/07/02 17:37:19;;;;;;;5.45;3.47;;;33.00;33.90;;;;;;10160232;28;20510;-59
2021/07/02 17:42:11;;;;;;;4.32;3.85;;;32.20;34.40;;;;;;10154160;28;20112;-58
2021/07/02 17:47:01;;;;;;;5.63;3.83;;;32.00;34.70;;;;;;10148708;28;20077;-58
2021/07/02 17:51:52;;;;;;;4.40;3.80;;;31.80;35.00;;;;;;10132076;28;20080;-58
2021/07/02 17:56:43;;;;;;;5.97;4.07;;;31.20;35.00;;;;;;10160344;28;20028;-58
2021/07/02 18:01:36;;;;;;;8.68;3.63;;;29.40;37.20;;;;;;10161118;28;20055;-59
2021/07/02 18:06:27;;;;;;;5.30;4.40;;;28.50;37.90;;;;;;10159088;28;20119;-59
2021/07/02 18:11:18;;;;;;;6.18;4.07;;;27.90;38.40;;;;;;10159658;28;20040;-60
2021/07/02 18:16:08;;;;;;;6.20;4.22;;;27.30;38.80;;;;;;10165040;28;20036;-59
2021/07/02 18:20:59;;;;;;;5.47;4.00;;;27.10;39.20;;;;;;10165130;28;20623;-59
2021/07/02 18:25:50;;;;;;;7.57;4.70;;;26.90;39.50;;;;;;10166867;28;20553;-58
2021/07/02 18:30:41;;;;;;;8.63;4.38;;;26.80;39.70;;;;;;10167574;28;20109;-57
2021/07/02 18:35:32;;;;;;;6.40;3.97;;;26.70;39.90;;;;;;10167385;28;20035;-59
2021/07/02 18:40:23;;;;;;;5.20;3.45;;;26.60;40.30;;;;;;10157051;28;20045;-56
2021/07/02 18:45:14;;;;;;;5.97;3.63;;;26.50;40.40;;;;;;10146813;28;20025;-58
2021/07/02 18:50:07;;;;;;;7.38;4.07;;;26.40;40.60;;;;;;10143687;28;20506;-59
2021/07/02 18:54:58;;;;;;;5.60;3.40;;;26.30;40.90;;;;;;10142349;28;20300;-57
2021/07/02 18:59:59;;;;;;;4.60;3.60;;;26.10;41.30;;;;;;10165513;28;20376;-57
2021/07/02 19:04:49;;;;;;;4.10;3.20;;;25.90;41.60;;;;;;10166853;28;20845;-55
2021/07/02 19:09:40;;;;;;;5.18;3.53;;;25.60;42.00;;;;;;10162869;28;20133;-58
2021/07/02 19:14:35;;;;;;;7.43;4.13;;;25.40;42.40;;;;;;10155100;28;20080;-57
2021/07/02 19:19:25;;;;;;;7.03;3.80;;;25.30;42.50;;;;;;10164973;28;20055;-61
2021/07/02 19:24:16;;;;;;;5.78;3.85;;;25.10;42.60;;;;;;10144331;28;20360;-59
2021/07/02 19:29:07;;;;;;;5.60;3.75;;;25.00;43.00;;;;;;10148588;28;20502;-59
2021/07/02 19:33:58;;;;;;;6.88;4.95;;;24.90;43.20;;;;;;10165357;28;20044;-59
2021/07/02 19:38:49;;;;;;;5.93;4.05;;;24.80;43.50;;;;;;10156089;28;20053;-61
2021/07/02 19:43:40;;;;;;;11.07;6.65;;;24.70;43.80;;;;;;10160154;28;20682;-60
2021/07/02 19:48:31;;;;;;;7.75;4.80;;;24.60;44.20;;;;;;10158364;28;20024;-60
2021/07/02 19:53:22;;;;;;;7.55;4.55;;;24.50;44.50;;;;;;10147498;28;20071;-60
2021/07/02 19:58:12;;;;;;;7.65;5.03;;;24.40;45.00;;;;;;10169311;28;20028;-60
2021/07/02 20:03:03;;;;;;;8.85;5.22;;;24.30;45.30;;;;;;10172230;28;20067;-59
2021/07/02 20:07:54;;;;;;;9.60;5.05;;;24.20;45.90;;;;;;10174401;28;20040;-59
2021/07/02 20:12:48;;;;;;;12.20;8.13;;;24.20;46.10;;;;;;10170733;28;20034;-58
2021/07/02 20:17:38;;;;;;;11.68;7.22;;;24.20;46.30;;;;;;10172006;28;20039;-58
2021/07/02 20:22:29;;;;;;;10.55;6.05;;;24.10;46.70;;;;;;10168886;28;20051;-58
2021/07/02 20:27:20;;;;;;;12.48;6.68;;;24.10;47.20;;;;;;10170811;28;20036;-59
2021/07/02 20:32:10;;;;;;;10.13;6.60;;;23.90;47.70;;;;;;10169401;28;20036;-59
2021/07/02 20:37:01;;;;;;;10.43;7.05;;;23.90;48.00;;;;;;10161670;28;20080;-60
2021/07/02 20:41:52;;;;;;;11.57;6.35;;;23.80;48.50;;;;;;10166161;28;20116;-58
2021/07/02 20:46:43;;;;;;;15.02;7.97;;;23.70;48.70;;;;;;10165296;28;20328;-60
2021/07/02 20:51:33;;;;;;;10.57;6.45;;;23.60;49.70;;;;;;10170327;28;20098;-59
2021/07/02 20:56:24;;;;;;;12.10;7.15;;;23.60;49.30;;;;;;10169612;28;20040;-60
2021/07/02 21:01:15;;;;;;;14.93;7.75;;;23.50;49.50;;;;;;10170901;28;20059;-60
2021/07/02 21:06:06;;;;;;;10.27;7.70;;;23.50;50.10;;;;;;10169277;28;20044;-61
2021/07/02 21:10:56;;;;;;;10.82;6.82;;;23.50;50.10;;;;;;10171442;28;20036;-59
2021/07/02 21:15:48;;;;;;;9.88;6.38;;;23.50;50.30;;;;;;10156505;28;20062;-58
2021/07/02 21:20:41;;;;;;;12.07;7.28;;;23.50;50.50;;;;;;10164846;28;20698;-60
2021/07/02 21:25:32;;;;;;;9.57;6.97;;;23.30;50.90;;;;;;10165430;28;20534;-59
2021/07/02 21:30:23;;;;;;;12.45;7.63;;;23.20;51.40;;;;;;10164001;28;20031;-59
2021/07/02 21:35:14;;;;;;;9.85;6.03;;;23.10;51.60;;;;;;10163326;28;20405;-59
2021/07/02 21:40:07;;;;;;;12.57;6.25;;;23.10;51.80;;;;;;10162784;28;20584;-59
2021/07/02 21:44:58;;;;;;;7.38;5.63;;;22.90;52.40;;;;;;10163683;28;20460;-59
2021/07/02 21:49:49;;;;;;;10.55;5.90;;;22.70;52.70;;;;;;10163964;28;20052;-60
2021/07/02 21:54:40;;;;;;;8.90;5.53;;;22.70;53.00;;;;;;10170027;28;20040;-59
2021/07/02 21:59:31;;;;;;;10.55;5.85;;;22.70;53.30;;;;;;10169055;28;20105;-59
2021/07/02 22:04:22;;;;;;;7.28;4.75;;;22.60;53.80;;;;;;10167519;28;20047;-59
2021/07/02 22:09:18;;;;;;;8.95;6.00;;;22.50;54.10;;;;;;10163962;28;20190;-58
2021/07/02 22:14:09;;;;;;;8.50;5.18;;;22.50;54.40;;;;;;10170573;28;20035;-59
2021/07/02 22:19:01;;;;;;;12.18;7.78;;;22.40;54.80;;;;;;10171882;28;20146;-58
2021/07/02 22:23:51;;;;;;;10.32;5.72;;;22.10;55.50;;;;;;10169735;28;20162;-58
2021/07/02 22:28:42;;;;;;;9.25;6.32;;;22.10;56.20;;;;;;10169633;28;20404;-58
2021/07/02 22:33:33;;;;;;;11.82;6.88;;;22.10;56.40;;;;;;10170169;28;20087;-59
2021/07/02 22:38:23;;;;;;;9.48;6.35;;;22.00;56.80;;;;;;10153645;28;20047;-58
2021/07/02 22:43:14;;;;;;;9.95;6.07;;;22.10;57.00;;;;;;10166903;28;20259;-59
2021/07/02 22:48:05;;;;;;;8.25;5.57;;;22.00;57.40;;;;;;10159372;28;20032;-57
2021/07/02 22:52:55;;;;;;;10.02;6.03;;;21.90;57.80;;;;;;10149907;28;20056;-58
2021/07/02 22:57:46;;;;;;;8.73;5.43;;;21.90;58.00;;;;;;10153835;28;20636;-59
2021/07/02 23:02:37;;;;;;;7.47;5.78;;;21.80;58.40;;;;;;10167289;28;20091;-59
2021/07/02 23:07:27;;;;;;;8.32;4.78;;;21.70;58.80;;;;;;10168140;28;20030;-60
2021/07/02 23:12:18;;;;;;;9.32;5.10;;;21.60;58.90;;;;;;10170781;28;20044;-60
2021/07/02 23:17:10;;;;;;;12.25;5.75;;;21.60;59.20;;;;;;10168220;28;20105;-61
2021/07/02 23:22:01;;;;;;;7.72;5.30;;;21.30;59.60;;;;;;10169683;28;20075;-58
2021/07/02 23:26:53;;;;;;;7.95;5.10;;;21.30;60.00;;;;;;10166993;28;20473;-60
2021/07/02 23:31:44;;;;;;;10.52;5.15;;;21.20;60.20;;;;;;10168134;28;20051;-59
2021/07/02 23:36:35;;;;;;;7.35;5.38;;;21.30;60.00;;;;;;10147393;28;20659;-58
2021/07/02 23:41:25;;;;;;;6.10;5.38;;;21.20;60.20;;;;;;10168913;28;20509;-59
2021/07/02 23:46:16;;;;;;;6.25;4.82;;;21.10;60.20;;;;;;10167481;28;20187;-60
2021/07/02 23:51:07;;;;;;;8.30;5.30;;;21.10;60.20;;;;;;10166509;28;20474;-60
2021/07/02 23:55:57;;;;;;;7.25;4.38;;;21.10;60.40;;;;;;10167469;28;20414;-59
